Terminal Aerodrome Forecast
Issued by NWS Tampa Bay Area, FL

Home | Current Version | Previous Version | Text Only | Print | Product List | Glossary On
Versions: 1 2 3 4 5 6 7 8 9 10 11 12 13 14 15 16
000
FTUS42 KTBW 291947 AAA
TAFFMY
TAF AMD
KFMY 291947Z 2920/3018 27007KT P6SM VCSH SCT030 OVC100
      TEMPO 2920/2921 5SM -RA BKN030 BKN100
     FM300200 26005KT P6SM SCT030 BKN200
     FM301300 26009KT P6SM VCSH SCT030 BKN150=

USA.gov is the U.S. government's official web portal to all federal, state and local government web resources and services.